x

9418767 - North Spit, Ca (hbyc1) Weather Station

1:36pm - Tue 16th Oct 2018 All times are PDT. -7 hours from GMT.

  • Wind
    9mph, 10mph gusts
  • Sea Temp 53°f
  • Air Temp 51°f
  • Sea Pressure 1020.3mb
  • 9418767 - North Spit, Ca
  • 9418767 - North Spit, Ca

More Historic Weather Station data

Upgrade to MSW Pro to gain access to the past 30 days of data for over 8000 Wavebouys and Weather Stations around the globe.

Join

Comparision Forecast

View Surf forecast
   
Tue 10/16 1:36pm 9 10 mph 1020.3mb 53f 51f
1:30pm 9 9 mph 1020.3mb 53f 51f
1:24pm 8 9 mph 1020.3mb 53f 50f
1:18pm 7 8 mph 1020.4mb 53f 50f
1:12pm 7 8 mph 1020.5mb 52f 50f
1:06pm 7 8 mph 1020.6mb 52f 49f
1:00pm 7 9 mph 1020.6mb 52f 49f
12:36pm 9 10 mph 1021mb 52f 48f
12:30pm 10 11 mph 1021mb 52f 48f
12:24pm 9 10 mph 1021.1mb 52f 48f
12:18pm 9 10 mph 1021.2mb 52f 48f
12:12pm 9 10 mph 1021.2mb 52f 48f
12:06pm 11 13 mph 1021.3mb 52f 48f
12:00pm 10 13 mph 1021.4mb 52f 48f
11:36am 9 10 mph 1021.5mb 52f 48f
11:30am 9 10 mph 1021.6mb 52f 48f
11:24am 8 10 mph 1021.6mb 52f 48f
11:18am 9 10 mph 1021.7mb 52f 48f
11:12am 9 11 mph 1021.8mb 52f 48f
11:06am 10 11 mph 1021.8mb 52f 48f
11:00am 9 11 mph 1021.8mb 52f 48f
10:36am 7 9 mph 1022mb 52f 48f
10:30am 6 8 mph 1021.9mb 52f 48f
10:24am 7 8 mph 1022mb 52f 48f
10:18am 7 8 mph 1022mb 52f 48f
10:12am 6 8 mph 1022mb 52f 49f
10:06am 5 6 mph 1022mb 52f 49f
10:00am 3 6 mph 1022mb 52f 49f
8:36am 6 7 mph 1021.6mb 51f 45f
8:30am 6 6 mph 1021.6mb 51f 44f
8:24am 6 6 mph 1021.7mb 51f 44f
8:18am 5 5 mph 1021.6mb 51f 45f
8:12am 3 5 mph 1021.6mb 51f 46f
8:06am 3 5 mph 1021.6mb 51f 45f
8:00am 2 3 mph 1021.6mb 51f 45f
7:36am 3 5 mph 1021.6mb 51f 44f
7:30am 3 5 mph 1021.6mb 51f 45f
7:24am 5 5 mph 1021.6mb 51f 45f
7:18am 3 5 mph 1021.6mb 51f 45f
7:12am 3 5 mph 1021.6mb 51f 45f
7:06am 5 6 mph 1021.6mb 52f 45f
7:00am 6 6 mph 1021.6mb 52f 46f
6:36am 6 6 mph 1021.6mb 52f 47f
6:30am 6 7 mph 1021.6mb 52f 45f
6:24am 7 8 mph 1021.6mb 52f 43f
6:18am 7 8 mph 1021.7mb 52f 43f
6:12am 7 8 mph 1021.7mb 52f 44f
6:06am 7 8 mph 1021.7mb 52f 44f
6:00am 7 8 mph 1021.7mb 52f 44f
5:36am 3 5 mph 1021.7mb 52f 46f
5:30am 5 6 mph 1021.7mb 52f 46f
5:24am 5 6 mph 1021.6mb 53f 46f
5:18am 5 6 mph 1021.6mb 53f 45f
5:12am 7 8 mph 1021.7mb 53f 43f
5:06am 7 7 mph 1021.7mb 53f 42f
5:00am 7 8 mph 1021.7mb 53f 42f
4:36am 6 6 mph 1021.7mb 54f 44f
4:30am 5 6 mph 1021.7mb 54f 45f
4:24am 5 5 mph 1021.6mb 55f 45f
4:18am 1 2 mph 1021.6mb 55f 46f
4:12am 3 5 mph 1021.6mb 55f 45f
4:06am 2 3 mph 1021.6mb 55f 45f
4:00am  -  1 mph 1021.6mb 55f 46f
3:36am 5 6 mph 1021.6mb 55f 46f
3:30am 3 5 mph 1021.5mb 56f 46f
3:24am 3 5 mph 1021.6mb 56f 46f
3:18am 5 6 mph 1021.6mb 56f 46f
3:12am 3 6 mph 1021.6mb 56f 46f
3:06am 5 6 mph 1021.6mb 56f 45f
3:00am 5 6 mph 1021.6mb 56f 46f
2:36am 3 3 mph 1021.6mb 56f 46f
2:30am 2 3 mph 1021.6mb 56f 46f
2:24am  -  2 mph 1021.7mb 56f 46f
2:18am  -  1 mph 1021.7mb 56f 47f
2:12am 2 3 mph 1021.7mb 56f 47f
2:06am 3 6 mph 1021.7mb 56f 46f
2:00am 5 6 mph 1021.7mb 56f 45f
1:36am 5 5 mph 1021.8mb 56f 47f
1:30am 5 5 mph 1021.9mb 56f 46f
1:24am 3 5 mph 1021.9mb 56f 46f
1:18am 3 5 mph 1021.9mb 56f 47f
1:12am 3 6 mph 1021.9mb 56f 46f
1:06am 5 6 mph 1022mb 56f 47f
1:00am 5 6 mph 1021.9mb 55f 47f
Mon 10/15 11:36pm 2 5 mph 1022.2mb 55f 47f
11:30pm 5 5 mph 1022.2mb 54f 47f
11:24pm 2 2 mph 1022.2mb 54f 49f
11:18pm 2 3 mph 1022.2mb 54f 50f
11:12pm 3 6 mph 1022.2mb 54f 49f
11:06pm 6 7 mph 1022.2mb 54f 48f
11:00pm 6 7 mph 1022.2mb 54f 48f
10:36pm 3 3 mph 1022.2mb 53f 48f
10:30pm 3 5 mph 1022.1mb 53f 49f
10:24pm 5 5 mph 1022mb 53f 50f
10:18pm 5 5 mph 1022mb 53f 50f
10:12pm 3 5 mph 1022mb 53f 50f
10:06pm 3 3 mph 1022.1mb 53f 50f
10:00pm 2 3 mph 1022.1mb 53f 50f